sensor_id;sensor_type;location;lat;lon;timestamp;temperature;humidity
21425;DHT22;10873;51.132;16.848;2023-04-24T00:01:57;25.60;56.20
21425;DHT22;10873;51.132;16.848;2023-04-24T00:04:24;25.60;56.20
21425;DHT22;10873;51.132;16.848;2023-04-24T00:06:51;25.60;56.20
21425;DHT22;10873;51.132;16.848;2023-04-24T00:09:20;25.60;56.20
21425;DHT22;10873;51.132;16.848;2023-04-24T00:11:46;25.60;56.20
21425;DHT22;10873;51.132;16.848;2023-04-24T00:14:12;25.60;56.20
21425;DHT22;10873;51.132;16.848;2023-04-24T00:16:38;25.50;56.20
21425;DHT22;10873;51.132;16.848;2023-04-24T00:19:05;25.50;56.20
21425;DHT22;10873;51.132;16.848;2023-04-24T00:21:32;25.50;56.20
21425;DHT22;10873;51.132;16.848;2023-04-24T00:23:58;25.50;56.20
21425;DHT22;10873;51.132;16.848;2023-04-24T00:26:24;25.50;56.20
21425;DHT22;10873;51.132;16.848;2023-04-24T00:28:50;25.50;56.20
21425;DHT22;10873;51.132;16.848;2023-04-24T00:31:16;25.50;56.20
21425;DHT22;10873;51.132;16.848;2023-04-24T00:41:15;25.50;56.20
21425;DHT22;10873;51.132;16.848;2023-04-24T00:43:51;25.50;56.20
21425;DHT22;10873;51.132;16.848;2023-04-24T00:46:23;25.50;56.20
21425;DHT22;10873;51.132;16.848;2023-04-24T00:48:55;25.50;56.30
21425;DHT22;10873;51.132;16.848;2023-04-24T00:51:22;25.50;56.30
21425;DHT22;10873;51.132;16.848;2023-04-24T00:53:50;25.50;56.20
21425;DHT22;10873;51.132;16.848;2023-04-24T00:56:31;25.50;56.20
21425;DHT22;10873;51.132;16.848;2023-04-24T00:58:58;25.50;56.20
21425;DHT22;10873;51.132;16.848;2023-04-24T01:01:29;25.50;56.20
21425;DHT22;10873;51.132;16.848;2023-04-24T01:04:04;25.50;56.20
21425;DHT22;10873;51.132;16.848;2023-04-24T01:06:43;25.50;56.20
21425;DHT22;10873;51.132;16.848;2023-04-24T01:09:18;25.50;56.20
21425;DHT22;10873;51.132;16.848;2023-04-24T01:12:03;25.50;56.20
21425;DHT22;10873;51.132;16.848;2023-04-24T01:14:43;25.50;56.10
21425;DHT22;10873;51.132;16.848;2023-04-24T01:17:42;25.50;56.10
21425;DHT22;10873;51.132;16.848;2023-04-24T01:20:14;25.50;56.10
21425;DHT22;10873;51.132;16.848;2023-04-24T01:22:59;25.50;56.10
21425;DHT22;10873;51.132;16.848;2023-04-24T01:25:39;25.60;56.20
21425;DHT22;10873;51.132;16.848;2023-04-24T01:28:17;25.50;56.10
21425;DHT22;10873;51.132;16.848;2023-04-24T01:30:58;25.50;56.10
21425;DHT22;10873;51.132;16.848;2023-04-24T01:33:41;25.50;56.00
21425;DHT22;10873;51.132;16.848;2023-04-24T01:36:25;25.50;56.10
21425;DHT22;10873;51.132;16.848;2023-04-24T01:39:17;25.60;56.20
21425;DHT22;10873;51.132;16.848;2023-04-24T01:41:46;25.50;56.10
21425;DHT22;10873;51.132;16.848;2023-04-24T01:44:16;25.60;56.20
21425;DHT22;10873;51.132;16.848;2023-04-24T01:50:03;25.50;56.10
21425;DHT22;10873;51.132;16.848;2023-04-24T01:52:29;25.50;56.00
21425;DHT22;10873;51.132;16.848;2023-04-24T01:55:01;25.60;56.10
21425;DHT22;10873;51.132;16.848;2023-04-24T01:57:33;25.50;56.10
21425;DHT22;10873;51.132;16.848;2023-04-24T02:00:12;25.50;56.00
21425;DHT22;10873;51.132;16.848;2023-04-24T02:03:10;25.50;56.00
21425;DHT22;10873;51.132;16.848;2023-04-24T02:05:45;25.50;56.00
21425;DHT22;10873;51.132;16.848;2023-04-24T02:08:14;25.50;56.00
21425;DHT22;10873;51.132;16.848;2023-04-24T02:10:54;25.50;56.00
21425;DHT22;10873;51.132;16.848;2023-04-24T02:13:23;25.50;56.00
21425;DHT22;10873;51.132;16.848;2023-04-24T02:15:58;25.50;56.00
21425;DHT22;10873;51.132;16.848;2023-04-24T02:18:32;25.50;56.00
21425;DHT22;10873;51.132;16.848;2023-04-24T02:21:08;25.50;56.00
21425;DHT22;10873;51.132;16.848;2023-04-24T02:23:37;25.50;56.00
21425;DHT22;10873;51.132;16.848;2023-04-24T02:26:06;25.40;56.00
21425;DHT22;10873;51.132;16.848;2023-04-24T02:28:35;25.40;56.00
21425;DHT22;10873;51.132;16.848;2023-04-24T02:31:08;25.50;56.00
21425;DHT22;10873;51.132;16.848;2023-04-24T02:33:34;25.40;56.00
21425;DHT22;10873;51.132;16.848;2023-04-24T02:36:01;25.40;56.00
21425;DHT22;10873;51.132;16.848;2023-04-24T02:38:27;25.40;56.00
21425;DHT22;10873;51.132;16.848;2023-04-24T02:40:53;25.40;56.00
21425;DHT22;10873;51.132;16.848;2023-04-24T02:43:21;25.40;56.70
21425;DHT22;10873;51.132;16.848;2023-04-24T02:45:47;25.40;56.10
21425;DHT22;10873;51.132;16.848;2023-04-24T02:48:13;25.40;56.00
21425;DHT22;10873;51.132;16.848;2023-04-24T02:50:39;25.40;56.00
21425;DHT22;10873;51.132;16.848;2023-04-24T02:53:05;25.40;56.00
21425;DHT22;10873;51.132;16.848;2023-04-24T02:55:31;25.40;56.00
21425;DHT22;10873;51.132;16.848;2023-04-24T02:57:57;25.40;56.00
21425;DHT22;10873;51.132;16.848;2023-04-24T03:00:25;25.40;56.00
21425;DHT22;10873;51.132;16.848;2023-04-24T03:02:51;25.40;56.00
21425;DHT22;10873;51.132;16.848;2023-04-24T03:05:17;25.40;56.00
21425;DHT22;10873;51.132;16.848;2023-04-24T03:07:43;25.40;56.00
21425;DHT22;10873;51.132;16.848;2023-04-24T03:10:09;25.40;56.00
21425;DHT22;10873;51.132;16.848;2023-04-24T03:12:35;25.40;56.00
21425;DHT22;10873;51.132;16.848;2023-04-24T03:15:02;25.40;55.90
21425;DHT22;10873;51.132;16.848;2023-04-24T03:17:29;25.40;56.60
21425;DHT22;10873;51.132;16.848;2023-04-24T03:19:55;25.40;55.90
21425;DHT22;10873;51.132;16.848;2023-04-24T03:22:21;25.40;55.90
21425;DHT22;10873;51.132;16.848;2023-04-24T03:24:47;25.40;55.90
21425;DHT22;10873;51.132;16.848;2023-04-24T03:27:13;25.40;55.90
21425;DHT22;10873;51.132;16.848;2023-04-24T03:29:40;25.40;56.60
21425;DHT22;10873;51.132;16.848;2023-04-24T03:32:05;25.40;55.90
21425;DHT22;10873;51.132;16.848;2023-04-24T03:34:33;25.40;55.90
21425;DHT22;10873;51.132;16.848;2023-04-24T03:36:59;25.40;55.90
21425;DHT22;10873;51.132;16.848;2023-04-24T03:39:25;25.40;55.80
21425;DHT22;10873;51.132;16.848;2023-04-24T03:41:51;25.40;55.80
21425;DHT22;10873;51.132;16.848;2023-04-24T03:44:17;25.40;55.80
21425;DHT22;10873;51.132;16.848;2023-04-24T03:46:43;25.40;55.80
21425;DHT22;10873;51.132;16.848;2023-04-24T03:49:09;25.40;55.90
21425;DHT22;10873;51.132;16.848;2023-04-24T03:51:36;25.40;56.50
21425;DHT22;10873;51.132;16.848;2023-04-24T03:54:03;25.40;56.40
21425;DHT22;10873;51.132;16.848;2023-04-24T03:56:29;25.40;55.90
21425;DHT22;10873;51.132;16.848;2023-04-24T03:58:55;25.40;55.90
21425;DHT22;10873;51.132;16.848;2023-04-24T04:01:21;25.40;55.90
21425;DHT22;10873;51.132;16.848;2023-04-24T04:03:48;25.40;55.80
21425;DHT22;10873;51.132;16.848;2023-04-24T04:06:14;25.40;55.80
21425;DHT22;10873;51.132;16.848;2023-04-24T04:08:41;25.40;55.80
21425;DHT22;10873;51.132;16.848;2023-04-24T04:11:07;25.40;55.80
21425;DHT22;10873;51.132;16.848;2023-04-24T04:13:34;25.40;55.70
21425;DHT22;10873;51.132;16.848;2023-04-24T04:15:59;25.40;55.80
21425;DHT22;10873;51.132;16.848;2023-04-24T04:18:26;25.40;55.80
21425;DHT22;10873;51.132;16.848;2023-04-24T04:20:51;25.30;55.90
21425;DHT22;10873;51.132;16.848;2023-04-24T04:23:18;25.30;56.20
21425;DHT22;10873;51.132;16.848;2023-04-24T04:25:45;25.20;56.20
21425;DHT22;10873;51.132;16.848;2023-04-24T04:28:13;25.20;56.40
21425;DHT22;10873;51.132;16.848;2023-04-24T04:30:38;25.10;56.50
21425;DHT22;10873;51.132;16.848;2023-04-24T04:33:05;25.10;56.70
21425;DHT22;10873;51.132;16.848;2023-04-24T04:35:31;25.00;56.80
21425;DHT22;10873;51.132;16.848;2023-04-24T04:37:58;25.00;56.90
21425;DHT22;10873;51.132;16.848;2023-04-24T04:40:24;25.00;57.00
21425;DHT22;10873;51.132;16.848;2023-04-24T04:42:52;25.00;57.10
21425;DHT22;10873;51.132;16.848;2023-04-24T04:45:18;25.00;57.30
21425;DHT22;10873;51.132;16.848;2023-04-24T04:47:44;25.00;57.50
21425;DHT22;10873;51.132;16.848;2023-04-24T04:50:11;24.90;57.50
21425;DHT22;10873;51.132;16.848;2023-04-24T04:52:37;24.90;57.50
21425;DHT22;10873;51.132;16.848;2023-04-24T04:55:03;24.90;57.60
21425;DHT22;10873;51.132;16.848;2023-04-24T04:57:30;24.80;57.60
21425;DHT22;10873;51.132;16.848;2023-04-24T04:59:58;24.80;57.70
21425;DHT22;10873;51.132;16.848;2023-04-24T05:02:24;24.80;57.80
21425;DHT22;10873;51.132;16.848;2023-04-24T05:04:50;24.80;57.90
21425;DHT22;10873;51.132;16.848;2023-04-24T05:07:17;24.80;57.90
21425;DHT22;10873;51.132;16.848;2023-04-24T05:09:44;24.80;57.90
21425;DHT22;10873;51.132;16.848;2023-04-24T05:12:10;24.80;58.60
21425;DHT22;10873;51.132;16.848;2023-04-24T05:14:36;24.80;58.00
21425;DHT22;10873;51.132;16.848;2023-04-24T05:17:04;24.80;58.00
21425;DHT22;10873;51.132;16.848;2023-04-24T05:19:30;24.80;58.00
21425;DHT22;10873;51.132;16.848;2023-04-24T05:21:58;24.80;58.00
21425;DHT22;10873;51.132;16.848;2023-04-24T05:24:24;24.80;58.00
21425;DHT22;10873;51.132;16.848;2023-04-24T05:26:50;24.80;58.00
21425;DHT22;10873;51.132;16.848;2023-04-24T05:29:16;24.80;58.00
21425;DHT22;10873;51.132;16.848;2023-04-24T05:31:45;24.80;58.00
21425;DHT22;10873;51.132;16.848;2023-04-24T05:34:12;24.80;58.00
21425;DHT22;10873;51.132;16.848;2023-04-24T05:36:38;24.80;58.00
21425;DHT22;10873;51.132;16.848;2023-04-24T05:39:04;24.70;57.90
21425;DHT22;10873;51.132;16.848;2023-04-24T05:41:31;24.70;57.90
21425;DHT22;10873;51.132;16.848;2023-04-24T05:43:56;24.70;57.90
21425;DHT22;10873;51.132;16.848;2023-04-24T05:46:23;24.70;57.90
21425;DHT22;10873;51.132;16.848;2023-04-24T05:48:49;24.70;57.90
21425;DHT22;10873;51.132;16.848;2023-04-24T05:51:16;24.70;57.90
21425;DHT22;10873;51.132;16.848;2023-04-24T05:53:42;24.70;58.80
21425;DHT22;10873;51.132;16.848;2023-04-24T05:56:08;24.70;58.10
21425;DHT22;10873;51.132;16.848;2023-04-24T05:58:34;24.70;58.10
21425;DHT22;10873;51.132;16.848;2023-04-24T06:01:01;24.70;58.00
21425;DHT22;10873;51.132;16.848;2023-04-24T06:03:27;24.80;57.90
21425;DHT22;10873;51.132;16.848;2023-04-24T06:05:53;24.80;57.80
21425;DHT22;10873;51.132;16.848;2023-04-24T06:08:21;24.80;57.80
21425;DHT22;10873;51.132;16.848;2023-04-24T06:10:47;24.80;58.00
21425;DHT22;10873;51.132;16.848;2023-04-24T06:13:13;24.90;58.40
21425;DHT22;10873;51.132;16.848;2023-04-24T06:15:39;24.90;57.70
21425;DHT22;10873;51.132;16.848;2023-04-24T06:18:06;24.90;57.60
21425;DHT22;10873;51.132;16.848;2023-04-24T06:20:32;24.90;57.60
21425;DHT22;10873;51.132;16.848;2023-04-24T06:22:58;25.00;57.60
21425;DHT22;10873;51.132;16.848;2023-04-24T06:25:26;25.00;57.60
21425;DHT22;10873;51.132;16.848;2023-04-24T06:27:52;25.00;58.20
21425;DHT22;10873;51.132;16.848;2023-04-24T06:30:19;25.00;57.50
21425;DHT22;10873;51.132;16.848;2023-04-24T06:32:44;25.00;57.50
21425;DHT22;10873;51.132;16.848;2023-04-24T06:35:11;25.00;57.50
21425;DHT22;10873;51.132;16.848;2023-04-24T06:37:39;25.00;57.50
21425;DHT22;10873;51.132;16.848;2023-04-24T06:40:06;25.00;57.50
21425;DHT22;10873;51.132;16.848;2023-04-24T06:42:34;25.00;57.50
21425;DHT22;10873;51.132;16.848;2023-04-24T06:45:01;25.00;57.50
21425;DHT22;10873;51.132;16.848;2023-04-24T06:47:26;25.00;57.50
21425;DHT22;10873;51.132;16.848;2023-04-24T06:49:53;25.00;57.40
21425;DHT22;10873;51.132;16.848;2023-04-24T06:52:19;25.00;57.40
21425;DHT22;10873;51.132;16.848;2023-04-24T06:54:46;25.00;57.40
21425;DHT22;10873;51.132;16.848;2023-04-24T06:57:12;25.10;57.50
21425;DHT22;10873;51.132;16.848;2023-04-24T06:59:39;25.10;57.40
21425;DHT22;10873;51.132;16.848;2023-04-24T07:02:06;25.10;57.40
21425;DHT22;10873;51.132;16.848;2023-04-24T07:04:32;25.10;57.40
21425;DHT22;10873;51.132;16.848;2023-04-24T07:06:58;25.10;57.40
21425;DHT22;10873;51.132;16.848;2023-04-24T07:09:25;25.10;57.30
21425;DHT22;10873;51.132;16.848;2023-04-24T07:11:51;25.10;57.30
21425;DHT22;10873;51.132;16.848;2023-04-24T07:14:18;25.20;57.30
21425;DHT22;10873;51.132;16.848;2023-04-24T07:16:45;25.20;57.20
21425;DHT22;10873;51.132;16.848;2023-04-24T07:19:12;25.20;57.20
21425;DHT22;10873;51.132;16.848;2023-04-24T07:21:38;25.20;57.20
21425;DHT22;10873;51.132;16.848;2023-04-24T07:24:04;25.20;57.20
21425;DHT22;10873;51.132;16.848;2023-04-24T07:26:30;25.20;57.10
21425;DHT22;10873;51.132;16.848;2023-04-24T07:28:57;25.20;57.10
21425;DHT22;10873;51.132;16.848;2023-04-24T07:31:23;25.30;57.20
21425;DHT22;10873;51.132;16.848;2023-04-24T07:33:50;25.30;57.10
21425;DHT22;10873;51.132;16.848;2023-04-24T07:36:16;25.30;57.00
21425;DHT22;10873;51.132;16.848;2023-04-24T10:07:34;25.00;57.10
21425;DHT22;10873;51.132;16.848;2023-04-24T10:10:00;25.10;57.90
21425;DHT22;10873;51.132;16.848;2023-04-24T10:12:27;25.10;57.90
21425;DHT22;10873;51.132;16.848;2023-04-24T10:14:55;25.10;57.80
21425;DHT22;10873;51.132;16.848;2023-04-24T10:17:22;25.20;57.80
21425;DHT22;10873;51.132;16.848;2023-04-24T10:19:49;25.20;57.70
21425;DHT22;10873;51.132;16.848;2023-04-24T10:22:15;25.20;57.70
21425;DHT22;10873;51.132;16.848;2023-04-24T10:24:45;25.20;57.60
21425;DHT22;10873;51.132;16.848;2023-04-24T10:27:13;25.20;57.60
21425;DHT22;10873;51.132;16.848;2023-04-24T10:29:41;25.20;57.60
21425;DHT22;10873;51.132;16.848;2023-04-24T10:32:09;25.20;57.70
21425;DHT22;10873;51.132;16.848;2023-04-24T10:34:36;25.20;57.60
21425;DHT22;10873;51.132;16.848;2023-04-24T10:37:02;25.20;57.60
21425;DHT22;10873;51.132;16.848;2023-04-24T10:39:29;25.20;57.50
21425;DHT22;10873;51.132;16.848;2023-04-24T10:41:57;25.30;57.60
21425;DHT22;10873;51.132;16.848;2023-04-24T10:44:24;25.30;57.50
21425;DHT22;10873;51.132;16.848;2023-04-24T10:46:54;25.30;57.50
21425;DHT22;10873;51.132;16.848;2023-04-24T10:49:28;25.30;57.50
21425;DHT22;10873;51.132;16.848;2023-04-24T10:52:00;25.30;57.50
21425;DHT22;10873;51.132;16.848;2023-04-24T10:54:28;25.30;57.50
21425;DHT22;10873;51.132;16.848;2023-04-24T10:57:29;25.30;57.40
21425;DHT22;10873;51.132;16.848;2023-04-24T11:00:24;25.30;57.40
21425;DHT22;10873;51.132;16.848;2023-04-24T11:02:52;25.30;57.40
21425;DHT22;10873;51.132;16.848;2023-04-24T11:05:20;25.30;57.30
21425;DHT22;10873;51.132;16.848;2023-04-24T11:08:10;25.30;57.30
21425;DHT22;10873;51.132;16.848;2023-04-24T11:10:43;25.30;57.30
21425;DHT22;10873;51.132;16.848;2023-04-24T11:13:14;25.30;57.30
21425;DHT22;10873;51.132;16.848;2023-04-24T11:15:41;25.30;57.40
21425;DHT22;10873;51.132;16.848;2023-04-24T11:18:13;25.30;57.40
21425;DHT22;10873;51.132;16.848;2023-04-24T11:20:42;25.30;57.50
21425;DHT22;10873;51.132;16.848;2023-04-24T11:23:08;25.30;59.10
21425;DHT22;10873;51.132;16.848;2023-04-24T11:25:35;25.30;59.40
21425;DHT22;10873;51.132;16.848;2023-04-24T11:28:05;25.40;60.00
21425;DHT22;10873;51.132;16.848;2023-04-24T11:30:33;25.40;60.10
21425;DHT22;10873;51.132;16.848;2023-04-24T11:33:02;25.40;60.00
21425;DHT22;10873;51.132;16.848;2023-04-24T11:35:29;25.50;60.60
21425;DHT22;10873;51.132;16.848;2023-04-24T11:37:56;25.60;61.00
21425;DHT22;10873;51.132;16.848;2023-04-24T11:40:23;25.60;61.00
21425;DHT22;10873;51.132;16.848;2023-04-24T11:42:51;25.70;64.50
21425;DHT22;10873;51.132;16.848;2023-04-24T11:45:22;25.90;65.80
21425;DHT22;10873;51.132;16.848;2023-04-24T11:47:49;26.10;66.80
21425;DHT22;10873;51.132;16.848;2023-04-24T11:50:17;26.50;67.30
21425;DHT22;10873;51.132;16.848;2023-04-24T11:52:45;26.80;67.60
21425;DHT22;10873;51.132;16.848;2023-04-24T11:55:23;27.20;67.60
21425;DHT22;10873;51.132;16.848;2023-04-24T11:57:53;27.60;67.30
21425;DHT22;10873;51.132;16.848;2023-04-24T12:00:23;28.10;66.90
21425;DHT22;10873;51.132;16.848;2023-04-24T12:02:51;28.50;66.30
21425;DHT22;10873;51.132;16.848;2023-04-24T12:05:21;28.90;65.70
21425;DHT22;10873;51.132;16.848;2023-04-24T12:07:47;29.30;64.70
21425;DHT22;10873;51.132;16.848;2023-04-24T12:10:13;29.70;64.30
21425;DHT22;10873;51.132;16.848;2023-04-24T12:12:40;30.00;63.10
21425;DHT22;10873;51.132;16.848;2023-04-24T12:15:08;30.40;62.30
21425;DHT22;10873;51.132;16.848;2023-04-24T12:17:35;30.70;61.90
21425;DHT22;10873;51.132;16.848;2023-04-24T12:20:05;31.00;60.80
21425;DHT22;10873;51.132;16.848;2023-04-24T12:22:46;31.30;60.30
21425;DHT22;10873;51.132;16.848;2023-04-24T12:25:13;31.60;59.20
21425;DHT22;10873;51.132;16.848;2023-04-24T12:27:39;31.80;58.50
21425;DHT22;10873;51.132;16.848;2023-04-24T12:30:12;32.00;57.50
21425;DHT22;10873;51.132;16.848;2023-04-24T12:32:41;32.20;56.60
21425;DHT22;10873;51.132;16.848;2023-04-24T12:35:09;32.40;56.20
21425;DHT22;10873;51.132;16.848;2023-04-24T12:37:35;32.60;56.10
21425;DHT22;10873;51.132;16.848;2023-04-24T12:40:05;32.70;55.50
21425;DHT22;10873;51.132;16.848;2023-04-24T12:42:32;32.90;57.50
21425;DHT22;10873;51.132;16.848;2023-04-24T12:44:59;32.90;58.50
21425;DHT22;10873;51.132;16.848;2023-04-24T12:47:26;32.70;56.90
21425;DHT22;10873;51.132;16.848;2023-04-24T12:49:52;32.70;56.80
21425;DHT22;10873;51.132;16.848;2023-04-24T12:52:20;32.70;56.30
21425;DHT22;10873;51.132;16.848;2023-04-24T12:54:46;32.80;57.20
21425;DHT22;10873;51.132;16.848;2023-04-24T12:57:12;32.70;57.10
21425;DHT22;10873;51.132;16.848;2023-04-24T12:59:38;32.50;56.90
21425;DHT22;10873;51.132;16.848;2023-04-24T13:02:05;32.30;56.30
21425;DHT22;10873;51.132;16.848;2023-04-24T13:04:31;32.00;56.10
21425;DHT22;10873;51.132;16.848;2023-04-24T13:06:58;31.80;56.70
21425;DHT22;10873;51.132;16.848;2023-04-24T13:09:25;31.60;56.20
21425;DHT22;10873;51.132;16.848;2023-04-24T13:11:51;31.40;55.60
21425;DHT22;10873;51.132;16.848;2023-04-24T13:14:17;31.20;55.50
21425;DHT22;10873;51.132;16.848;2023-04-24T13:16:43;31.00;54.80
21425;DHT22;10873;51.132;16.848;2023-04-24T13:19:09;30.90;54.00
21425;DHT22;10873;51.132;16.848;2023-04-24T13:21:35;30.70;53.00
21425;DHT22;10873;51.132;16.848;2023-04-24T13:24:02;30.50;52.80
21425;DHT22;10873;51.132;16.848;2023-04-24T13:26:31;30.40;52.90
21425;DHT22;10873;51.132;16.848;2023-04-24T13:28:57;30.30;52.80
21425;DHT22;10873;51.132;16.848;2023-04-24T13:31:23;30.10;53.10
21425;DHT22;10873;51.132;16.848;2023-04-24T13:33:50;30.00;53.00
21425;DHT22;10873;51.132;16.848;2023-04-24T13:36:15;29.90;53.20
21425;DHT22;10873;51.132;16.848;2023-04-24T13:38:44;29.80;53.60
21425;DHT22;10873;51.132;16.848;2023-04-24T13:41:10;29.70;53.50
21425;DHT22;10873;51.132;16.848;2023-04-24T13:43:37;29.50;53.30
21425;DHT22;10873;51.132;16.848;2023-04-24T13:46:03;29.50;53.50
21425;DHT22;10873;51.132;16.848;2023-04-24T13:48:29;29.40;53.50
21425;DHT22;10873;51.132;16.848;2023-04-24T13:50:56;29.30;53.60
21425;DHT22;10873;51.132;16.848;2023-04-24T13:53:22;29.20;53.70
21425;DHT22;10873;51.132;16.848;2023-04-24T13:55:48;29.10;53.90
21425;DHT22;10873;51.132;16.848;2023-04-24T13:58:14;29.00;53.90
21425;DHT22;10873;51.132;16.848;2023-04-24T14:00:42;28.90;54.00
21425;DHT22;10873;51.132;16.848;2023-04-24T14:03:08;28.80;54.00
21425;DHT22;10873;51.132;16.848;2023-04-24T14:05:34;28.80;54.10
21425;DHT22;10873;51.132;16.848;2023-04-24T14:08:00;28.70;54.00
21425;DHT22;10873;51.132;16.848;2023-04-24T14:10:26;28.70;54.20
21425;DHT22;10873;51.132;16.848;2023-04-24T14:12:53;28.60;54.20
21425;DHT22;10873;51.132;16.848;2023-04-24T14:15:19;28.50;54.30
21425;DHT22;10873;51.132;16.848;2023-04-24T14:17:47;28.40;54.40
21425;DHT22;10873;51.132;16.848;2023-04-24T14:20:13;28.40;54.50
21425;DHT22;10873;51.132;16.848;2023-04-24T14:22:39;28.30;54.50
21425;DHT22;10873;51.132;16.848;2023-04-24T14:25:06;28.30;54.70
21425;DHT22;10873;51.132;16.848;2023-04-24T14:27:33;28.20;54.70
21425;DHT22;10873;51.132;16.848;2023-04-24T14:30:00;28.10;54.70
21425;DHT22;10873;51.132;16.848;2023-04-24T14:32:26;28.10;54.80
21425;DHT22;10873;51.132;16.848;2023-04-24T14:34:53;28.10;54.90
21425;DHT22;10873;51.132;16.848;2023-04-24T14:37:19;28.00;55.00
21425;DHT22;10873;51.132;16.848;2023-04-24T14:39:46;28.00;55.10
21425;DHT22;10873;51.132;16.848;2023-04-24T14:42:12;27.90;55.00
21425;DHT22;10873;51.132;16.848;2023-04-24T14:44:38;27.90;55.10
21425;DHT22;10873;51.132;16.848;2023-04-24T14:47:04;27.80;55.20
21425;DHT22;10873;51.132;16.848;2023-04-24T14:49:30;27.80;55.30
21425;DHT22;10873;51.132;16.848;2023-04-24T14:51:58;27.70;55.30
21425;DHT22;10873;51.132;16.848;2023-04-24T14:54:24;27.70;55.50
21425;DHT22;10873;51.132;16.848;2023-04-24T14:56:51;27.70;55.50
21425;DHT22;10873;51.132;16.848;2023-04-24T14:59:17;27.70;55.50
21425;DHT22;10873;51.132;16.848;2023-04-24T15:01:43;27.60;55.50
21425;DHT22;10873;51.132;16.848;2023-04-24T15:04:09;27.60;55.60
21425;DHT22;10873;51.132;16.848;2023-04-24T15:06:35;27.60;55.70
21425;DHT22;10873;51.132;16.848;2023-04-24T15:09:02;27.60;55.70
21425;DHT22;10873;51.132;16.848;2023-04-24T15:11:29;27.60;55.70
21425;DHT22;10873;51.132;16.848;2023-04-24T15:13:56;27.50;55.70
21425;DHT22;10873;51.132;16.848;2023-04-24T15:16:23;27.50;55.70
21425;DHT22;10873;51.132;16.848;2023-04-24T15:18:49;27.50;55.80
21425;DHT22;10873;51.132;16.848;2023-04-24T15:21:15;27.50;55.80
21425;DHT22;10873;51.132;16.848;2023-04-24T15:23:41;27.50;55.90
21425;DHT22;10873;51.132;16.848;2023-04-24T15:26:08;27.50;55.90
21425;DHT22;10873;51.132;16.848;2023-04-24T15:28:34;27.40;55.90
21425;DHT22;10873;51.132;16.848;2023-04-24T15:31:01;27.40;55.90
21425;DHT22;10873;51.132;16.848;2023-04-24T15:33:26;27.40;55.90
21425;DHT22;10873;51.132;16.848;2023-04-24T15:35:53;27.40;55.90
21425;DHT22;10873;51.132;16.848;2023-04-24T15:38:18;27.40;55.90
21425;DHT22;10873;51.132;16.848;2023-04-24T15:40:44;27.40;56.00
21425;DHT22;10873;51.132;16.848;2023-04-24T15:43:12;27.40;56.00
21425;DHT22;10873;51.132;16.848;2023-04-24T15:45:38;27.40;56.00
21425;DHT22;10873;51.132;16.848;2023-04-24T15:48:04;27.40;56.10
21425;DHT22;10873;51.132;16.848;2023-04-24T15:50:30;27.30;56.00
21425;DHT22;10873;51.132;16.848;2023-04-24T15:52:56;27.30;56.00
21425;DHT22;10873;51.132;16.848;2023-04-24T15:55:22;27.30;56.00
21425;DHT22;10873;51.132;16.848;2023-04-24T15:57:48;27.30;56.10
21425;DHT22;10873;51.132;16.848;2023-04-24T16:00:17;27.20;56.00
21425;DHT22;10873;51.132;16.848;2023-04-24T16:02:43;27.20;56.50
21425;DHT22;10873;51.132;16.848;2023-04-24T16:05:10;27.20;56.00
21425;DHT22;10873;51.132;16.848;2023-04-24T16:07:37;27.20;56.10
21425;DHT22;10873;51.132;16.848;2023-04-24T16:10:03;27.10;56.10
21425;DHT22;10873;51.132;16.848;2023-04-24T16:12:30;27.10;56.10
21425;DHT22;10873;51.132;16.848;2023-04-24T16:14:56;27.10;56.10
21425;DHT22;10873;51.132;16.848;2023-04-24T16:17:24;27.10;56.20
21425;DHT22;10873;51.132;16.848;2023-04-24T16:19:50;27.00;56.10
21425;DHT22;10873;51.132;16.848;2023-04-24T16:22:16;27.00;56.20
21425;DHT22;10873;51.132;16.848;2023-04-24T16:24:42;27.00;56.20
21425;DHT22;10873;51.132;16.848;2023-04-24T16:27:09;27.00;56.20
21425;DHT22;10873;51.132;16.848;2023-04-24T16:29:35;27.00;56.30
21425;DHT22;10873;51.132;16.848;2023-04-24T16:32:01;27.00;56.30
21425;DHT22;10873;51.132;16.848;2023-04-24T16:34:29;27.00;56.30
21425;DHT22;10873;51.132;16.848;2023-04-24T16:36:54;27.00;56.30
21425;DHT22;10873;51.132;16.848;2023-04-24T16:39:21;27.00;56.30
21425;DHT22;10873;51.132;16.848;2023-04-24T16:41:46;26.90;56.20
21425;DHT22;10873;51.132;16.848;2023-04-24T16:44:14;26.90;56.20
21425;DHT22;10873;51.132;16.848;2023-04-24T16:46:40;26.90;56.20
21425;DHT22;10873;51.132;16.848;2023-04-24T16:49:06;26.90;56.20
21425;DHT22;10873;51.132;16.848;2023-04-24T16:51:34;26.90;56.20
21425;DHT22;10873;51.132;16.848;2023-04-24T16:54:00;26.90;56.20
21425;DHT22;10873;51.132;16.848;2023-04-24T16:56:26;26.90;56.20
21425;DHT22;10873;51.132;16.848;2023-04-24T16:58:52;26.90;56.20
21425;DHT22;10873;51.132;16.848;2023-04-24T17:01:18;26.90;56.20
21425;DHT22;10873;51.132;16.848;2023-04-24T17:03:44;26.90;56.20
21425;DHT22;10873;51.132;16.848;2023-04-24T17:06:11;26.90;56.20
21425;DHT22;10873;51.132;16.848;2023-04-24T17:08:38;26.90;56.20
21425;DHT22;10873;51.132;16.848;2023-04-24T17:11:05;26.90;56.30
21425;DHT22;10873;51.132;16.848;2023-04-24T17:13:31;26.90;56.20
21425;DHT22;10873;51.132;16.848;2023-04-24T17:15:57;26.80;56.20
21425;DHT22;10873;51.132;16.848;2023-04-24T17:18:23;26.80;56.20
21425;DHT22;10873;51.132;16.848;2023-04-24T17:20:49;26.80;56.20
21425;DHT22;10873;51.132;16.848;2023-04-24T17:23:15;26.80;56.30
21425;DHT22;10873;51.132;16.848;2023-04-24T17:25:43;26.80;56.30
21425;DHT22;10873;51.132;16.848;2023-04-24T17:28:18;26.80;56.40
21425;DHT22;10873;51.132;16.848;2023-04-24T17:30:46;26.80;56.40
21425;DHT22;10873;51.132;16.848;2023-04-24T17:33:12;26.80;56.50
21425;DHT22;10873;51.132;16.848;2023-04-24T17:35:38;26.80;56.50
21425;DHT22;10873;51.132;16.848;2023-04-24T17:38:04;26.70;56.50
21425;DHT22;10873;51.132;16.848;2023-04-24T17:40:30;26.70;56.50
21425;DHT22;10873;51.132;16.848;2023-04-24T17:42:58;26.70;56.50
21425;DHT22;10873;51.132;16.848;2023-04-24T17:45:23;26.70;56.50
21425;DHT22;10873;51.132;16.848;2023-04-24T17:47:50;26.70;56.60
21425;DHT22;10873;51.132;16.848;2023-04-24T17:50:16;26.70;56.60
21425;DHT22;10873;51.132;16.848;2023-04-24T17:52:43;26.70;56.60
21425;DHT22;10873;51.132;16.848;2023-04-24T17:55:09;26.70;56.70
21425;DHT22;10873;51.132;16.848;2023-04-24T17:57:35;26.80;56.70
21425;DHT22;10873;51.132;16.848;2023-04-24T18:00:03;26.80;56.70